sensor_id;sensor_type;location;lat;lon;timestamp;pressure;altitude;pressure_sealevel;temperature;humidity
75745;BME280;64359;51.366;-0.222;2023-06-19T00:00:14;100559.00;;;23.81;55.83
75745;BME280;64359;51.366;-0.222;2023-06-19T00:01:19;100554.85;;;23.81;55.79
75745;BME280;64359;51.366;-0.222;2023-06-19T00:02:24;100553.98;;;23.81;56.04
75745;BME280;64359;51.366;-0.222;2023-06-19T00:03:28;100553.30;;;23.80;56.25
75745;BME280;64359;51.366;-0.222;2023-06-19T00:04:32;100550.59;;;23.79;55.98
75745;BME280;64359;51.366;-0.222;2023-06-19T00:05:37;100552.39;;;23.79;56.13
75745;BME280;64359;51.366;-0.222;2023-06-19T00:06:41;100554.02;;;23.79;56.11
75745;BME280;64359;51.366;-0.222;2023-06-19T00:07:45;100548.97;;;23.77;56.03
75745;BME280;64359;51.366;-0.222;2023-06-19T00:08:50;100554.31;;;23.78;56.00
75745;BME280;64359;51.366;-0.222;2023-06-19T00:09:55;100552.77;;;23.78;56.15
75745;BME280;64359;51.366;-0.222;2023-06-19T00:10:59;100551.05;;;23.77;56.06
75745;BME280;64359;51.366;-0.222;2023-06-19T00:12:04;100547.72;;;23.75;56.09
75745;BME280;64359;51.366;-0.222;2023-06-19T00:13:08;100552.14;;;23.77;56.11
75745;BME280;64359;51.366;-0.222;2023-06-19T00:14:13;100552.23;;;23.77;56.21
75745;BME280;64359;51.366;-0.222;2023-06-19T00:15:18;100551.69;;;23.77;56.33
75745;BME280;64359;51.366;-0.222;2023-06-19T00:16:22;100552.86;;;23.76;56.14
75745;BME280;64359;51.366;-0.222;2023-06-19T00:17:29;100558.30;;;23.76;56.25
75745;BME280;64359;51.366;-0.222;2023-06-19T00:18:33;100557.27;;;23.76;56.21
75745;BME280;64359;51.366;-0.222;2023-06-19T00:19:42;100557.68;;;23.75;56.22
75745;BME280;64359;51.366;-0.222;2023-06-19T00:20:47;100560.19;;;23.75;56.24
75745;BME280;64359;51.366;-0.222;2023-06-19T00:21:51;100564.88;;;23.76;56.34
75745;BME280;64359;51.366;-0.222;2023-06-19T00:23:00;100564.58;;;23.75;56.21
75745;BME280;64359;51.366;-0.222;2023-06-19T00:24:05;100563.08;;;23.75;56.34
75745;BME280;64359;51.366;-0.222;2023-06-19T00:25:10;100566.85;;;23.75;56.28
75745;BME280;64359;51.366;-0.222;2023-06-19T00:26:14;100566.71;;;23.74;56.45
75745;BME280;64359;51.366;-0.222;2023-06-19T00:27:18;100563.63;;;23.74;56.33
75745;BME280;64359;51.366;-0.222;2023-06-19T00:28:23;100565.63;;;23.74;56.27
75745;BME280;64359;51.366;-0.222;2023-06-19T00:29:27;100569.98;;;23.74;56.50
75745;BME280;64359;51.366;-0.222;2023-06-19T00:30:31;100566.92;;;23.74;56.53
75745;BME280;64359;51.366;-0.222;2023-06-19T00:31:36;100570.61;;;23.74;56.32
75745;BME280;64359;51.366;-0.222;2023-06-19T00:32:41;100572.41;;;23.74;56.41
75745;BME280;64359;51.366;-0.222;2023-06-19T00:33:50;100572.46;;;23.73;56.60
75745;BME280;64359;51.366;-0.222;2023-06-19T00:34:54;100576.77;;;23.72;56.53
75745;BME280;64359;51.366;-0.222;2023-06-19T00:35:59;100579.83;;;23.73;56.69
75745;BME280;64359;51.366;-0.222;2023-06-19T00:37:04;100576.22;;;23.68;56.55
75745;BME280;64359;51.366;-0.222;2023-06-19T00:38:09;100580.95;;;23.72;56.80
75745;BME280;64359;51.366;-0.222;2023-06-19T00:39:13;100581.54;;;23.72;56.46
75745;BME280;64359;51.366;-0.222;2023-06-19T00:40:24;100581.70;;;23.72;56.61
75745;BME280;64359;51.366;-0.222;2023-06-19T00:41:31;100583.00;;;23.72;56.71
75745;BME280;64359;51.366;-0.222;2023-06-19T00:42:36;100581.25;;;23.71;56.53
75745;BME280;64359;51.366;-0.222;2023-06-19T00:43:40;100582.00;;;23.71;56.64
75745;BME280;64359;51.366;-0.222;2023-06-19T00:44:44;100584.22;;;23.71;56.60
75745;BME280;64359;51.366;-0.222;2023-06-19T00:45:49;100582.09;;;23.71;56.35
75745;BME280;64359;51.366;-0.222;2023-06-19T00:46:58;100580.88;;;23.70;56.55
75745;BME280;64359;51.366;-0.222;2023-06-19T00:48:05;100578.06;;;23.68;56.67
75745;BME280;64359;51.366;-0.222;2023-06-19T00:49:10;100578.53;;;23.69;56.65
75745;BME280;64359;51.366;-0.222;2023-06-19T00:50:14;100580.38;;;23.69;56.66
75745;BME280;64359;51.366;-0.222;2023-06-19T00:51:18;100575.73;;;23.68;56.73
75745;BME280;64359;51.366;-0.222;2023-06-19T00:52:23;100578.12;;;23.68;57.07
75745;BME280;64359;51.366;-0.222;2023-06-19T00:53:28;100577.66;;;23.67;56.91
75745;BME280;64359;51.366;-0.222;2023-06-19T00:54:32;100578.54;;;23.66;56.76
75745;BME280;64359;51.366;-0.222;2023-06-19T00:55:37;100578.91;;;23.66;56.73
75745;BME280;64359;51.366;-0.222;2023-06-19T00:56:42;100579.67;;;23.66;56.94
75745;BME280;64359;51.366;-0.222;2023-06-19T00:57:46;100583.30;;;23.66;56.88
75745;BME280;64359;51.366;-0.222;2023-06-19T00:58:52;100584.10;;;23.65;56.97
75745;BME280;64359;51.366;-0.222;2023-06-19T00:59:57;100582.15;;;23.65;56.98
75745;BME280;64359;51.366;-0.222;2023-06-19T01:01:02;100578.77;;;23.65;56.83
75745;BME280;64359;51.366;-0.222;2023-06-19T01:02:07;100578.02;;;23.63;56.85
75745;BME280;64359;51.366;-0.222;2023-06-19T01:03:11;100575.30;;;23.61;56.93
75745;BME280;64359;51.366;-0.222;2023-06-19T01:04:16;100581.37;;;23.63;56.68
75745;BME280;64359;51.366;-0.222;2023-06-19T01:05:20;100579.65;;;23.62;56.92
75745;BME280;64359;51.366;-0.222;2023-06-19T01:06:28;100579.48;;;23.62;56.80
75745;BME280;64359;51.366;-0.222;2023-06-19T01:07:44;100577.02;;;23.62;56.85
75745;BME280;64359;51.366;-0.222;2023-06-19T01:08:56;100574.27;;;23.61;56.93
75745;BME280;64359;51.366;-0.222;2023-06-19T01:10:04;100573.46;;;23.59;56.87
75745;BME280;64359;51.366;-0.222;2023-06-19T01:11:13;100574.64;;;23.59;56.99
75745;BME280;64359;51.366;-0.222;2023-06-19T01:12:22;100571.21;;;23.59;57.00
75745;BME280;64359;51.366;-0.222;2023-06-19T01:13:31;100574.98;;;23.59;56.88
75745;BME280;64359;51.366;-0.222;2023-06-19T01:14:42;100577.31;;;23.58;56.88
75745;BME280;64359;51.366;-0.222;2023-06-19T01:15:49;100570.54;;;23.54;57.03
75745;BME280;64359;51.366;-0.222;2023-06-19T01:16:54;100577.02;;;23.56;56.87
75745;BME280;64359;51.366;-0.222;2023-06-19T01:17:59;100577.23;;;23.56;56.66
75745;BME280;64359;51.366;-0.222;2023-06-19T01:19:07;100572.95;;;23.52;56.88
75745;BME280;64359;51.366;-0.222;2023-06-19T01:20:14;100575.80;;;23.54;56.91
75745;BME280;64359;51.366;-0.222;2023-06-19T01:21:19;100575.12;;;23.54;56.78
75745;BME280;64359;51.366;-0.222;2023-06-19T01:22:28;100580.81;;;23.53;57.01
75745;BME280;64359;51.366;-0.222;2023-06-19T01:23:33;100576.25;;;23.52;56.90
75745;BME280;64359;51.366;-0.222;2023-06-19T01:24:37;100575.45;;;23.51;56.81
75745;BME280;64359;51.366;-0.222;2023-06-19T01:25:41;100570.98;;;23.51;56.82
75745;BME280;64359;51.366;-0.222;2023-06-19T01:26:46;100574.84;;;23.51;56.88
75745;BME280;64359;51.366;-0.222;2023-06-19T01:27:50;100573.24;;;23.50;56.94
75745;BME280;64359;51.366;-0.222;2023-06-19T01:28:55;100574.17;;;23.50;57.03
75745;BME280;64359;51.366;-0.222;2023-06-19T01:30:01;100574.25;;;23.50;56.96
75745;BME280;64359;51.366;-0.222;2023-06-19T01:31:08;100573.08;;;23.49;56.81
75745;BME280;64359;51.366;-0.222;2023-06-19T01:32:18;100571.33;;;23.49;56.97
75745;BME280;64359;51.366;-0.222;2023-06-19T01:33:25;100574.40;;;23.47;56.92
75745;BME280;64359;51.366;-0.222;2023-06-19T01:34:31;100570.45;;;23.47;56.70
75745;BME280;64359;51.366;-0.222;2023-06-19T01:35:38;100572.84;;;23.47;57.08
75745;BME280;64359;51.366;-0.222;2023-06-19T01:36:44;100572.00;;;23.46;56.90
75745;BME280;64359;51.366;-0.222;2023-06-19T01:37:49;100572.45;;;23.46;56.83
75745;BME280;64359;51.366;-0.222;2023-06-19T01:38:56;100572.96;;;23.46;56.92
75745;BME280;64359;51.366;-0.222;2023-06-19T01:40:03;100573.05;;;23.45;56.88
75745;BME280;64359;51.366;-0.222;2023-06-19T01:41:10;100576.05;;;23.44;56.87
75745;BME280;64359;51.366;-0.222;2023-06-19T01:42:15;100576.60;;;23.45;56.92
75745;BME280;64359;51.366;-0.222;2023-06-19T01:43:20;100578.45;;;23.44;56.96
75745;BME280;64359;51.366;-0.222;2023-06-19T01:44:25;100579.02;;;23.44;56.83
75745;BME280;64359;51.366;-0.222;2023-06-19T01:45:30;100578.86;;;23.43;56.69
75745;BME280;64359;51.366;-0.222;2023-06-19T01:46:35;100580.86;;;23.42;56.89
75745;BME280;64359;51.366;-0.222;2023-06-19T01:47:39;100577.45;;;23.43;56.69
75745;BME280;64359;51.366;-0.222;2023-06-19T01:48:43;100580.98;;;23.42;56.73
75745;BME280;64359;51.366;-0.222;2023-06-19T01:49:48;100585.66;;;23.42;56.68
75745;BME280;64359;51.366;-0.222;2023-06-19T01:50:52;100582.98;;;23.41;56.91
75745;BME280;64359;51.366;-0.222;2023-06-19T01:51:57;100582.42;;;23.40;56.67
75745;BME280;64359;51.366;-0.222;2023-06-19T01:53:03;100579.51;;;23.41;56.70
75745;BME280;64359;51.366;-0.222;2023-06-19T01:54:08;100581.44;;;23.40;56.80
75745;BME280;64359;51.366;-0.222;2023-06-19T01:55:12;100587.29;;;23.39;56.66
75745;BME280;64359;51.366;-0.222;2023-06-19T01:56:17;100590.75;;;23.39;56.76
75745;BME280;64359;51.366;-0.222;2023-06-19T01:57:21;100589.42;;;23.38;56.56
75745;BME280;64359;51.366;-0.222;2023-06-19T01:58:25;100592.10;;;23.39;56.74
75745;BME280;64359;51.366;-0.222;2023-06-19T01:59:29;100589.09;;;23.38;56.75
75745;BME280;64359;51.366;-0.222;2023-06-19T02:00:34;100591.13;;;23.38;56.80
75745;BME280;64359;51.366;-0.222;2023-06-19T02:01:40;100590.27;;;23.38;56.61
75745;BME280;64359;51.366;-0.222;2023-06-19T02:02:44;100591.98;;;23.37;56.61
75745;BME280;64359;51.366;-0.222;2023-06-19T02:03:49;100591.14;;;23.37;56.47
75745;BME280;64359;51.366;-0.222;2023-06-19T02:04:53;100596.41;;;23.36;56.61
75745;BME280;64359;51.366;-0.222;2023-06-19T02:05:57;100594.52;;;23.35;56.52
75745;BME280;64359;51.366;-0.222;2023-06-19T02:07:01;100594.15;;;23.36;56.43
75745;BME280;64359;51.366;-0.222;2023-06-19T02:08:06;100590.30;;;23.35;56.58
75745;BME280;64359;51.366;-0.222;2023-06-19T02:09:10;100592.77;;;23.34;56.45
75745;BME280;64359;51.366;-0.222;2023-06-19T02:10:15;100591.90;;;23.34;56.50
75745;BME280;64359;51.366;-0.222;2023-06-19T02:11:19;100591.56;;;23.34;56.53
75745;BME280;64359;51.366;-0.222;2023-06-19T02:12:23;100592.31;;;23.33;56.59
75745;BME280;64359;51.366;-0.222;2023-06-19T02:13:28;100594.58;;;23.33;56.31
75745;BME280;64359;51.366;-0.222;2023-06-19T02:14:32;100596.45;;;23.32;56.28
75745;BME280;64359;51.366;-0.222;2023-06-19T02:15:36;100596.38;;;23.31;56.45
75745;BME280;64359;51.366;-0.222;2023-06-19T02:16:41;100595.84;;;23.32;56.30
75745;BME280;64359;51.366;-0.222;2023-06-19T02:17:46;100597.88;;;23.31;56.29
75745;BME280;64359;51.366;-0.222;2023-06-19T02:18:50;100597.33;;;23.31;56.33
75745;BME280;64359;51.366;-0.222;2023-06-19T02:19:55;100596.29;;;23.31;56.19
75745;BME280;64359;51.366;-0.222;2023-06-19T02:20:59;100598.42;;;23.29;56.25
75745;BME280;64359;51.366;-0.222;2023-06-19T02:22:04;100603.73;;;23.29;56.08
75745;BME280;64359;51.366;-0.222;2023-06-19T02:23:09;100602.39;;;23.28;56.36
75745;BME280;64359;51.366;-0.222;2023-06-19T02:24:13;100606.08;;;23.27;56.35
75745;BME280;64359;51.366;-0.222;2023-06-19T02:25:17;100603.45;;;23.27;56.24
75745;BME280;64359;51.366;-0.222;2023-06-19T02:26:22;100603.14;;;23.26;56.14
75745;BME280;64359;51.366;-0.222;2023-06-19T02:27:26;100605.53;;;23.24;56.39
75745;BME280;64359;51.366;-0.222;2023-06-19T02:28:31;100609.13;;;23.25;56.36
75745;BME280;64359;51.366;-0.222;2023-06-19T02:29:35;100609.55;;;23.25;56.38
75745;BME280;64359;51.366;-0.222;2023-06-19T02:30:40;100612.48;;;23.25;56.22
75745;BME280;64359;51.366;-0.222;2023-06-19T02:31:45;100616.08;;;23.23;56.16
75745;BME280;64359;51.366;-0.222;2023-06-19T02:32:49;100614.64;;;23.22;56.08
75745;BME280;64359;51.366;-0.222;2023-06-19T02:33:54;100613.05;;;23.23;56.14
75745;BME280;64359;51.366;-0.222;2023-06-19T02:34:58;100613.30;;;23.22;56.09
75745;BME280;64359;51.366;-0.222;2023-06-19T02:36:03;100616.16;;;23.22;56.22
75745;BME280;64359;51.366;-0.222;2023-06-19T02:37:08;100614.06;;;23.21;56.27
75745;BME280;64359;51.366;-0.222;2023-06-19T02:38:12;100615.57;;;23.21;56.07
75745;BME280;64359;51.366;-0.222;2023-06-19T02:39:17;100615.07;;;23.20;56.03
75745;BME280;64359;51.366;-0.222;2023-06-19T02:40:22;100616.15;;;23.19;56.15
75745;BME280;64359;51.366;-0.222;2023-06-19T02:41:27;100615.98;;;23.19;56.04
75745;BME280;64359;51.366;-0.222;2023-06-19T02:42:31;100613.88;;;23.18;56.11
75745;BME280;64359;51.366;-0.222;2023-06-19T02:43:35;100619.28;;;23.19;56.08
75745;BME280;64359;51.366;-0.222;2023-06-19T02:44:40;100619.17;;;23.18;56.02
75745;BME280;64359;51.366;-0.222;2023-06-19T02:45:45;100617.83;;;23.17;55.87
75745;BME280;64359;51.366;-0.222;2023-06-19T02:46:49;100619.17;;;23.16;55.85
75745;BME280;64359;51.366;-0.222;2023-06-19T02:47:54;100616.58;;;23.16;56.04
75745;BME280;64359;51.366;-0.222;2023-06-19T02:48:58;100621.55;;;23.16;55.93
75745;BME280;64359;51.366;-0.222;2023-06-19T02:50:05;100620.60;;;23.16;56.00
75745;BME280;64359;51.366;-0.222;2023-06-19T02:51:09;100623.95;;;23.15;55.97
75745;BME280;64359;51.366;-0.222;2023-06-19T02:52:13;100624.98;;;23.14;55.98
75745;BME280;64359;51.366;-0.222;2023-06-19T02:53:17;100623.40;;;23.14;55.99
75745;BME280;64359;51.366;-0.222;2023-06-19T02:54:22;100627.95;;;23.13;56.00
75745;BME280;64359;51.366;-0.222;2023-06-19T02:55:26;100627.66;;;23.13;55.99
75745;BME280;64359;51.366;-0.222;2023-06-19T02:56:30;100631.05;;;23.12;55.82
75745;BME280;64359;51.366;-0.222;2023-06-19T02:57:35;100633.27;;;23.12;55.79
75745;BME280;64359;51.366;-0.222;2023-06-19T02:58:39;100631.55;;;23.11;56.01
75745;BME280;64359;51.366;-0.222;2023-06-19T02:59:44;100637.98;;;23.10;55.80
75745;BME280;64359;51.366;-0.222;2023-06-19T03:00:49;100639.66;;;23.10;55.80
75745;BME280;64359;51.366;-0.222;2023-06-19T03:01:54;100643.41;;;23.09;55.74
75745;BME280;64359;51.366;-0.222;2023-06-19T03:02:58;100642.88;;;23.09;55.91
75745;BME280;64359;51.366;-0.222;2023-06-19T03:04:02;100644.64;;;23.08;55.82
75745;BME280;64359;51.366;-0.222;2023-06-19T03:05:08;100647.77;;;23.08;55.98
75745;BME280;64359;51.366;-0.222;2023-06-19T03:06:12;100651.83;;;23.07;55.69
75745;BME280;64359;51.366;-0.222;2023-06-19T03:07:17;100654.61;;;23.06;55.80
75745;BME280;64359;51.366;-0.222;2023-06-19T03:08:24;100654.33;;;23.06;55.99
75745;BME280;64359;51.366;-0.222;2023-06-19T03:09:30;100656.63;;;23.05;55.96
75745;BME280;64359;51.366;-0.222;2023-06-19T03:10:35;100658.67;;;23.05;55.87
75745;BME280;64359;51.366;-0.222;2023-06-19T03:11:39;100662.27;;;23.04;55.73
75745;BME280;64359;51.366;-0.222;2023-06-19T03:12:44;100659.09;;;23.03;55.90
75745;BME280;64359;51.366;-0.222;2023-06-19T03:13:50;100660.42;;;23.02;55.74
75745;BME280;64359;51.366;-0.222;2023-06-19T03:14:54;100662.64;;;23.02;55.83
75745;BME280;64359;51.366;-0.222;2023-06-19T03:15:58;100657.48;;;22.97;55.79
75745;BME280;64359;51.366;-0.222;2023-06-19T03:17:03;100670.30;;;23.01;56.02
75745;BME280;64359;51.366;-0.222;2023-06-19T03:18:07;100672.33;;;23.00;55.65
75745;BME280;64359;51.366;-0.222;2023-06-19T03:19:13;100673.54;;;22.97;55.65
75745;BME280;64359;51.366;-0.222;2023-06-19T03:20:18;100681.40;;;22.99;55.74
75745;BME280;64359;51.366;-0.222;2023-06-19T03:21:23;100681.83;;;22.98;55.73
75745;BME280;64359;51.366;-0.222;2023-06-19T03:22:27;100685.50;;;22.98;55.60
75745;BME280;64359;51.366;-0.222;2023-06-19T03:23:32;100683.75;;;22.98;55.57
75745;BME280;64359;51.366;-0.222;2023-06-19T03:24:36;100687.80;;;22.97;55.65
75745;BME280;64359;51.366;-0.222;2023-06-19T03:25:40;100688.42;;;22.96;55.36
75745;BME280;64359;51.366;-0.222;2023-06-19T03:26:45;100690.47;;;22.96;55.47
75745;BME280;64359;51.366;-0.222;2023-06-19T03:27:50;100686.73;;;22.95;55.54
75745;BME280;64359;51.366;-0.222;2023-06-19T03:28:54;100691.46;;;22.95;55.63
75745;BME280;64359;51.366;-0.222;2023-06-19T03:29:58;100690.99;;;22.95;55.50
75745;BME280;64359;51.366;-0.222;2023-06-19T03:31:03;100692.02;;;22.94;55.69
75745;BME280;64359;51.366;-0.222;2023-06-19T03:32:08;100693.82;;;22.94;55.56
75745;BME280;64359;51.366;-0.222;2023-06-19T03:33:12;100691.77;;;22.93;55.41
75745;BME280;64359;51.366;-0.222;2023-06-19T03:34:16;100691.44;;;22.92;55.54
75745;BME280;64359;51.366;-0.222;2023-06-19T03:35:20;100691.35;;;22.92;55.35
75745;BME280;64359;51.366;-0.222;2023-06-19T03:36:25;100692.43;;;22.92;55.61
75745;BME280;64359;51.366;-0.222;2023-06-19T03:37:29;100693.77;;;22.91;55.59
75745;BME280;64359;51.366;-0.222;2023-06-19T03:38:35;100690.13;;;22.90;55.62
75745;BME280;64359;51.366;-0.222;2023-06-19T03:39:39;100691.08;;;22.90;55.46
75745;BME280;64359;51.366;-0.222;2023-06-19T03:40:44;100693.14;;;22.89;55.52
75745;BME280;64359;51.366;-0.222;2023-06-19T03:41:48;100692.52;;;22.89;55.54
75745;BME280;64359;51.366;-0.222;2023-06-19T03:42:52;100693.71;;;22.88;55.53
75745;BME280;64359;51.366;-0.222;2023-06-19T03:43:57;100694.98;;;22.88;55.64
75745;BME280;64359;51.366;-0.222;2023-06-19T03:45:01;100695.52;;;22.88;55.57
75745;BME280;64359;51.366;-0.222;2023-06-19T03:46:05;100694.21;;;22.87;55.52
75745;BME280;64359;51.366;-0.222;2023-06-19T03:47:10;100695.52;;;22.86;55.51
75745;BME280;64359;51.366;-0.222;2023-06-19T03:48:14;100699.44;;;22.85;55.54
75745;BME280;64359;51.366;-0.222;2023-06-19T03:49:19;100699.98;;;22.86;55.63
75745;BME280;64359;51.366;-0.222;2023-06-19T03:50:23;100703.08;;;22.85;55.63
75745;BME280;64359;51.366;-0.222;2023-06-19T03:51:27;100699.52;;;22.85;55.70
75745;BME280;64359;51.366;-0.222;2023-06-19T03:52:32;100701.39;;;22.84;55.57
75745;BME280;64359;51.366;-0.222;2023-06-19T03:53:36;100702.36;;;22.84;55.70
75745;BME280;64359;51.366;-0.222;2023-06-19T03:54:41;100703.02;;;22.83;55.65
75745;BME280;64359;51.366;-0.222;2023-06-19T03:55:45;100705.16;;;22.83;55.52
75745;BME280;64359;51.366;-0.222;2023-06-19T03:56:50;100706.54;;;22.83;55.60
75745;BME280;64359;51.366;-0.222;2023-06-19T03:57:54;100706.27;;;22.82;55.53
75745;BME280;64359;51.366;-0.222;2023-06-19T03:58:59;100708.66;;;22.82;55.56
75745;BME280;64359;51.366;-0.222;2023-06-19T04:00:05;100703.10;;;22.78;55.46
75745;BME280;64359;51.366;-0.222;2023-06-19T04:01:10;100709.71;;;22.80;55.52
75745;BME280;64359;51.366;-0.222;2023-06-19T04:02:15;100715.65;;;22.81;55.60
75745;BME280;64359;51.366;-0.222;2023-06-19T04:03:19;100714.77;;;22.79;55.42
75745;BME280;64359;51.366;-0.222;2023-06-19T04:04:24;100717.31;;;22.79;55.39
75745;BME280;64359;51.366;-0.222;2023-06-19T04:05:28;100717.17;;;22.78;55.74
75745;BME280;64359;51.366;-0.222;2023-06-19T04:06:33;100719.03;;;22.78;55.49
75745;BME280;64359;51.366;-0.222;2023-06-19T04:07:37;100720.56;;;22.76;55.67
75745;BME280;64359;51.366;-0.222;2023-06-19T04:08:42;100720.11;;;22.77;55.68
75745;BME280;64359;51.366;-0.222;2023-06-19T04:09:46;100720.06;;;22.76;55.66
75745;BME280;64359;51.366;-0.222;2023-06-19T04:10:50;100726.20;;;22.76;55.68
75745;BME280;64359;51.366;-0.222;2023-06-19T04:11:55;100725.41;;;22.75;55.49
75745;BME280;64359;51.366;-0.222;2023-06-19T04:12:59;100729.04;;;22.75;55.70
75745;BME280;64359;51.366;-0.222;2023-06-19T04:14:04;100729.25;;;22.75;55.66
75745;BME280;64359;51.366;-0.222;2023-06-19T04:15:09;100731.46;;;22.75;55.78
75745;BME280;64359;51.366;-0.222;2023-06-19T04:16:13;100734.21;;;22.74;55.75
75745;BME280;64359;51.366;-0.222;2023-06-19T04:17:18;100735.22;;;22.74;55.74
75745;BME280;64359;51.366;-0.222;2023-06-19T04:18:24;100736.13;;;22.72;55.88
75745;BME280;64359;51.366;-0.222;2023-06-19T04:19:30;100736.23;;;22.73;55.72
75745;BME280;64359;51.366;-0.222;2023-06-19T04:20:34;100740.43;;;22.73;55.90
75745;BME280;64359;51.366;-0.222;2023-06-19T04:21:39;100740.31;;;22.72;55.87
75745;BME280;64359;51.366;-0.222;2023-06-19T04:22:43;100737.05;;;22.72;55.96
75745;BME280;64359;51.366;-0.222;2023-06-19T04:23:47;100738.10;;;22.73;56.01
75745;BME280;64359;51.366;-0.222;2023-06-19T04:24:51;100733.61;;;22.69;56.01
75745;BME280;64359;51.366;-0.222;2023-06-19T04:25:56;100737.26;;;22.72;55.90
75745;BME280;64359;51.366;-0.222;2023-06-19T04:27:00;100738.55;;;22.72;56.07
75745;BME280;64359;51.366;-0.222;2023-06-19T04:28:05;100731.84;;;22.69;56.04
75745;BME280;64359;51.366;-0.222;2023-06-19T04:29:09;100736.24;;;22.71;56.11
75745;BME280;64359;51.366;-0.222;2023-06-19T04:30:20;100740.80;;;22.71;56.15
75745;BME280;64359;51.366;-0.222;2023-06-19T04:31:24;100737.19;;;22.71;56.19
75745;BME280;64359;51.366;-0.222;2023-06-19T04:32:29;100741.36;;;22.71;56.33
75745;BME280;64359;51.366;-0.222;2023-06-19T04:33:33;100740.02;;;22.70;56.30
75745;BME280;64359;51.366;-0.222;2023-06-19T04:34:38;100744.75;;;22.70;56.28
75745;BME280;64359;51.366;-0.222;2023-06-19T04:35:42;100745.12;;;22.70;56.40
75745;BME280;64359;51.366;-0.222;2023-06-19T04:36:47;100745.63;;;22.70;56.55
75745;BME280;64359;51.366;-0.222;2023-06-19T04:37:53;100742.95;;;22.70;56.40
75745;BME280;64359;51.366;-0.222;2023-06-19T04:38:57;100742.65;;;22.69;56.41
75745;BME280;64359;51.366;-0.222;2023-06-19T04:40:05;100743.89;;;22.68;56.43
75745;BME280;64359;51.366;-0.222;2023-06-19T04:41:10;100746.28;;;22.69;56.44
75745;BME280;64359;51.366;-0.222;2023-06-19T04:42:15;100741.94;;;22.69;56.74
75745;BME280;64359;51.366;-0.222;2023-06-19T04:43:22;100742.18;;;22.69;56.56
75745;BME280;64359;51.366;-0.222;2023-06-19T04:44:27;100744.73;;;22.68;56.67
75745;BME280;64359;51.366;-0.222;2023-06-19T04:45:33;100747.95;;;22.67;56.80
75745;BME280;64359;51.366;-0.222;2023-06-19T04:46:37;100749.82;;;22.67;56.92
75745;BME280;64359;51.366;-0.222;2023-06-19T04:47:41;100754.13;;;22.67;56.71
75745;BME280;64359;51.366;-0.222;2023-06-19T04:48:47;100750.91;;;22.67;56.96
75745;BME280;64359;51.366;-0.222;2023-06-19T04:49:53;100752.21;;;22.67;56.65
75745;BME280;64359;51.366;-0.222;2023-06-19T04:50:58;100752.50;;;22.66;56.97
75745;BME280;64359;51.366;-0.222;2023-06-19T04:52:04;100754.34;;;22.66;57.00
75745;BME280;64359;51.366;-0.222;2023-06-19T04:53:08;100749.36;;;22.65;57.01
75745;BME280;64359;51.366;-0.222;2023-06-19T04:54:13;100748.45;;;22.65;57.06
75745;BME280;64359;51.366;-0.222;2023-06-19T04:55:17;100746.81;;;22.65;56.93
75745;BME280;64359;51.366;-0.222;2023-06-19T04:56:21;100743.89;;;22.65;57.04
75745;BME280;64359;51.366;-0.222;2023-06-19T04:57:26;100747.36;;;22.65;57.12
75745;BME280;64359;51.366;-0.222;2023-06-19T04:58:30;100747.94;;;22.65;56.99
75745;BME280;64359;51.366;-0.222;2023-06-19T04:59:34;100741.73;;;22.62;56.93
75745;BME280;64359;51.366;-0.222;2023-06-19T05:00:39;100744.02;;;22.64;57.12
75745;BME280;64359;51.366;-0.222;2023-06-19T05:01:44;100742.54;;;22.64;57.17
75745;BME280;64359;51.366;-0.222;2023-06-19T05:02:48;100744.64;;;22.65;57.08
75745;BME280;64359;51.366;-0.222;2023-06-19T05:03:53;100740.55;;;22.64;57.22
75745;BME280;64359;51.366;-0.222;2023-06-19T05:04:57;100743.71;;;22.64;57.21
75745;BME280;64359;51.366;-0.222;2023-06-19T05:06:05;100742.26;;;22.64;57.27
75745;BME280;64359;51.366;-0.222;2023-06-19T05:07:10;100745.13;;;22.64;57.53
75745;BME280;64359;51.366;-0.222;2023-06-19T05:08:15;100744.60;;;22.64;57.52
75745;BME280;64359;51.366;-0.222;2023-06-19T05:09:20;100746.14;;;22.63;57.34
75745;BME280;64359;51.366;-0.222;2023-06-19T05:10:24;100743.77;;;22.63;57.45
75745;BME280;64359;51.366;-0.222;2023-06-19T05:11:28;100745.77;;;22.63;57.57
75745;BME280;64359;51.366;-0.222;2023-06-19T05:12:33;100743.21;;;22.63;57.61
75745;BME280;64359;51.366;-0.222;2023-06-19T05:13:38;100745.56;;;22.64;57.76
75745;BME280;64359;51.366;-0.222;2023-06-19T05:14:42;100743.95;;;22.61;57.70
75745;BME280;64359;51.366;-0.222;2023-06-19T05:15:47;100752.58;;;22.64;57.81
75745;BME280;64359;51.366;-0.222;2023-06-19T05:16:51;100753.03;;;22.63;57.85
75745;BME280;64359;51.366;-0.222;2023-06-19T05:17:55;100754.82;;;22.63;57.85
75745;BME280;64359;51.366;-0.222;2023-06-19T05:19:00;100758.83;;;22.63;58.08
75745;BME280;64359;51.366;-0.222;2023-06-19T05:20:05;100759.75;;;22.63;58.01
75745;BME280;64359;51.366;-0.222;2023-06-19T05:21:11;100759.59;;;22.63;58.17
75745;BME280;64359;51.366;-0.222;2023-06-19T05:22:15;100758.84;;;22.63;58.23
75745;BME280;64359;51.366;-0.222;2023-06-19T05:23:21;100761.75;;;22.63;58.42
75745;BME280;64359;51.366;-0.222;2023-06-19T05:24:25;100764.55;;;22.62;58.23
75745;BME280;64359;51.366;-0.222;2023-06-19T05:25:30;100766.73;;;22.62;58.37
75745;BME280;64359;51.366;-0.222;2023-06-19T05:26:34;100764.23;;;22.62;58.55
75745;BME280;64359;51.366;-0.222;2023-06-19T05:27:38;100765.46;;;22.62;58.45
75745;BME280;64359;51.366;-0.222;2023-06-19T05:28:43;100763.30;;;22.62;58.41
75745;BME280;64359;51.366;-0.222;2023-06-19T05:29:47;100764.34;;;22.61;58.34
75745;BME280;64359;51.366;-0.222;2023-06-19T05:30:51;100763.38;;;22.62;58.42
75745;BME280;64359;51.366;-0.222;2023-06-19T05:31:55;100767.64;;;22.61;58.36
75745;BME280;64359;51.366;-0.222;2023-06-19T05:33:00;100770.15;;;22.61;58.12
75745;BME280;64359;51.366;-0.222;2023-06-19T05:34:04;100770.61;;;22.62;58.27
75745;BME280;64359;51.366;-0.222;2023-06-19T05:35:09;100773.20;;;22.62;58.50